Time;durP1;ratioP1;P1;durP2;ratioP2;P2;SDS_P1;SDS_P2;PMS_P1;PMS_P2;Temp;Humidity;BMP_temperature;BMP_pressure;BME280_temperature;BME280_humidity;BME280_pressure;Samples;Min_cycle;Max_cycle;Signal;HPM_P1;HPM_P2
2022/12/04 00:00:35;;;;;;;25.10;13.93;;;6.40;54.80;;;;;;4978493;28;20058;-45
2022/12/04 00:03:03;;;;;;;29.50;13.55;;;6.40;54.80;;;;;;4995622;28;20062;-43
2022/12/04 00:05:30;;;;;;;26.88;13.75;;;6.40;54.80;;;;;;4984870;28;20058;-43
2022/12/04 00:07:57;;;;;;;29.48;14.50;;;6.40;54.70;;;;;;4988321;28;20066;-43
2022/12/04 00:10:24;;;;;;;30.65;14.70;;;6.30;54.60;;;;;;4983327;28;20528;-46
2022/12/04 00:12:52;;;;;;;30.77;15.05;;;6.30;54.60;;;;;;4987871;28;20060;-47
2022/12/04 00:15:20;;;;;;;30.80;14.95;;;6.40;54.60;;;;;;4995838;28;20429;-50
2022/12/04 00:17:48;;;;;;;31.23;16.38;;;6.40;54.60;;;;;;4980181;28;20540;-46
2022/12/04 00:20:15;;;;;;;27.52;14.45;;;6.30;54.60;;;;;;4990629;28;20057;-45
2022/12/04 00:22:43;;;;;;;24.67;12.57;;;6.40;54.60;;;;;;4980682;28;20054;-41
2022/12/04 00:25:10;;;;;;;25.85;14.00;;;6.40;54.50;;;;;;4991405;28;20061;-42
2022/12/04 00:27:37;;;;;;;25.25;13.93;;;6.30;54.40;;;;;;4994886;28;20049;-51
2022/12/04 00:30:06;;;;;;;27.73;14.50;;;6.30;54.40;;;;;;4967590;28;20060;-50
2022/12/04 00:32:35;;;;;;;28.92;15.52;;;6.30;54.40;;;;;;4979012;28;20516;-45
2022/12/04 00:35:02;;;;;;;29.70;15.43;;;6.40;54.40;;;;;;4983763;28;20054;-47
2022/12/04 00:37:29;;;;;;;29.83;15.20;;;6.40;54.40;;;;;;4992435;28;20413;-46
2022/12/04 00:39:56;;;;;;;31.33;14.88;;;6.30;54.40;;;;;;4973664;28;20061;-47
2022/12/04 00:42:23;;;;;;;27.63;14.30;;;6.30;54.40;;;;;;4976978;28;20411;-52
2022/12/04 00:44:51;;;;;;;27.73;14.75;;;6.30;54.40;;;;;;4997514;28;20053;-47
2022/12/04 00:47:18;;;;;;;24.65;13.27;;;6.30;54.30;;;;;;4987302;28;20053;-45
2022/12/04 00:49:47;;;;;;;24.52;12.98;;;6.30;54.30;;;;;;4991044;28;20501;-46
2022/12/04 00:52:14;;;;;;;26.55;13.23;;;6.30;54.30;;;;;;4981677;28;20418;-44
2022/12/04 00:54:41;;;;;;;26.55;13.48;;;6.30;54.20;;;;;;4984627;28;20056;-43
2022/12/04 00:57:08;;;;;;;24.25;13.38;;;6.30;54.20;;;;;;4991728;28;20057;-48
2022/12/04 00:59:37;;;;;;;22.85;12.57;;;6.20;54.10;;;;;;4993781;28;20512;-42
2022/12/04 01:02:04;;;;;;;25.33;13.40;;;6.20;54.10;;;;;;4993976;28;20490;-42
2022/12/04 01:04:31;;;;;;;27.45;13.98;;;6.20;54.10;;;;;;4993815;28;20062;-43
2022/12/04 01:07:00;;;;;;;25.42;13.40;;;6.20;54.10;;;;;;4992023;28;20077;-41
2022/12/04 01:09:27;;;;;;;24.63;13.32;;;6.20;54.10;;;;;;4983296;28;20502;-43
2022/12/04 01:11:54;;;;;;;24.10;12.02;;;6.20;54.00;;;;;;4987390;28;20065;-41
2022/12/04 01:14:21;;;;;;;26.02;12.98;;;6.20;54.00;;;;;;5000857;28;20065;-43
2022/12/04 01:16:49;;;;;;;26.52;13.15;;;6.20;54.10;;;;;;4980616;28;20519;-44
2022/12/04 01:19:16;;;;;;;23.13;12.48;;;6.20;54.00;;;;;;4991093;28;20054;-47
2022/12/04 01:21:43;;;;;;;23.13;12.88;;;6.20;53.90;;;;;;4994311;28;20054;-44
2022/12/04 01:24:12;;;;;;;19.40;10.85;;;6.10;53.90;;;;;;5000157;28;20405;-42
2022/12/04 01:26:39;;;;;;;24.27;11.48;;;6.10;53.80;;;;;;4994145;28;20529;-41
2022/12/04 01:29:06;;;;;;;20.98;11.30;;;6.10;53.80;;;;;;4993902;28;20057;-40
2022/12/04 01:31:34;;;;;;;21.80;11.25;;;6.10;53.80;;;;;;4994234;28;20061;-43
2022/12/04 01:34:01;;;;;;;20.23;11.25;;;6.10;53.80;;;;;;4980739;28;21001;-42
2022/12/04 01:36:29;;;;;;;19.00;11.00;;;6.10;53.80;;;;;;4984939;28;20053;-43
2022/12/04 01:38:56;;;;;;;18.67;10.45;;;6.10;53.80;;;;;;4981457;28;20053;-42
2022/12/04 01:41:27;;;;;;;18.85;10.40;;;6.00;53.90;;;;;;4981994;28;20054;-47
2022/12/04 01:44:14;;;;;;;19.70;10.63;;;6.00;53.70;;;;;;4990008;28;20062;-47
2022/12/04 01:46:43;;;;;;;20.23;10.75;;;6.00;53.70;;;;;;4983077;28;20061;-43
2022/12/04 01:49:14;;;;;;;18.15;10.18;;;6.00;53.70;;;;;;4984368;28;20073;-42
2022/12/04 01:51:45;;;;;;;18.05;10.13;;;6.00;53.70;;;;;;4977568;28;20054;-40
2022/12/04 01:54:16;;;;;;;19.17;9.15;;;6.00;53.70;;;;;;4994099;28;20057;-43
2022/12/04 01:56:48;;;;;;;15.82;8.65;;;6.00;53.70;;;;;;4989841;28;20410;-43
2022/12/04 01:59:19;;;;;;;18.58;9.15;;;6.00;53.70;;;;;;4981750;28;20050;-47
2022/12/04 02:01:52;;;;;;;18.45;9.15;;;6.00;53.70;;;;;;4978810;28;20054;-44
2022/12/04 02:04:20;;;;;;;17.47;9.07;;;6.00;53.60;;;;;;4979819;28;20061;-42
2022/12/04 02:06:47;;;;;;;14.05;8.13;;;6.00;53.60;;;;;;4982910;28;21019;-41
2022/12/04 02:09:15;;;;;;;17.00;9.20;;;6.00;53.60;;;;;;4979488;28;20613;-43
2022/12/04 02:11:50;;;;;;;14.30;8.57;;;5.90;53.50;;;;;;4981449;28;20054;-44
2022/12/04 02:14:31;;;;;;;17.10;9.85;;;5.90;53.40;;;;;;4986251;28;20659;-44
2022/12/04 02:17:09;;;;;;;17.15;9.15;;;6.00;53.40;;;;;;4987057;28;20146;-49
2022/12/04 02:20:00;;;;;;;18.48;9.60;;;5.90;53.40;;;;;;4978706;28;20068;-40
2022/12/04 02:22:44;;;;;;;20.38;9.80;;;5.90;53.40;;;;;;4992014;28;20062;-45
2022/12/04 02:25:15;;;;;;;;;;;5.90;53.40;;;;;;4986956;28;20486;-47
2022/12/04 02:28:03;;;;;;;18.05;8.85;;;5.90;53.60;;;;;;4997751;28;20328;-43
2022/12/04 02:30:34;;;;;;;16.73;9.27;;;5.90;53.90;;;;;;4993191;28;20058;-49
2022/12/04 02:33:05;;;;;;;13.68;7.97;;;5.90;53.40;;;;;;5002238;28;20482;-48
2022/12/04 02:35:37;;;;;;;17.67;8.90;;;5.90;53.50;;;;;;5002530;28;20486;-42
2022/12/04 02:38:10;;;;;;;17.63;9.52;;;5.90;53.50;;;;;;4980814;28;20056;-42
2022/12/04 02:40:45;;;;;;;16.60;8.60;;;5.90;53.50;;;;;;4987484;28;20058;-42
2022/12/04 02:43:17;;;;;;;16.92;8.55;;;5.90;53.40;;;;;;4995523;28;20058;-42
2022/12/04 02:45:48;;;;;;;15.60;8.68;;;5.90;53.40;;;;;;4993589;28;20490;-48
2022/12/04 02:48:18;;;;;;;17.92;9.35;;;5.90;53.40;;;;;;4988065;28;20053;-47
2022/12/04 02:50:49;;;;;;;16.67;9.27;;;5.90;53.40;;;;;;4986956;28;20050;-41
2022/12/04 02:53:20;;;;;;;14.88;8.45;;;5.80;53.40;;;;;;4990824;28;20061;-42
2022/12/04 02:55:52;;;;;;;16.63;8.85;;;5.80;53.40;;;;;;4995602;28;20057;-40
2022/12/04 02:58:25;;;;;;;17.00;9.68;;;5.80;53.40;;;;;;4983746;28;20057;-42
2022/12/04 03:00:54;;;;;;;17.08;9.20;;;5.80;53.80;;;;;;4987370;28;20042;-43
2022/12/04 03:03:25;;;;;;;17.98;8.73;;;5.80;53.40;;;;;;5001737;28;20518;-49
2022/12/04 03:05:58;;;;;;;16.50;9.20;;;5.80;53.40;;;;;;4998047;28;20490;-43
2022/12/04 03:08:30;;;;;;;15.27;8.50;;;5.80;53.40;;;;;;4990657;28;20061;-45
2022/12/04 03:11:00;;;;;;;14.50;8.00;;;5.80;53.40;;;;;;4991921;28;20053;-45
2022/12/04 03:13:36;;;;;;;14.38;7.80;;;5.70;53.40;;;;;;5002362;28;20064;-44
2022/12/04 03:16:08;;;;;;;15.43;8.25;;;5.70;53.40;;;;;;4996823;28;20230;-43
2022/12/04 03:18:39;;;;;;;15.43;8.25;;;5.70;53.40;;;;;;4999352;28;20061;-44
2022/12/04 03:21:10;;;;;;;17.25;8.32;;;5.70;53.40;;;;;;4996585;28;20056;-42
2022/12/04 03:23:42;;;;;;;17.45;8.85;;;5.70;53.40;;;;;;4992088;28;20057;-49
2022/12/04 03:26:15;;;;;;;14.68;8.00;;;5.70;53.40;;;;;;4989115;28;20049;-44
2022/12/04 03:28:52;;;;;;;12.18;7.07;;;5.80;53.50;;;;;;4990330;28;20058;-43
2022/12/04 03:31:26;;;;;;;15.05;8.45;;;5.70;53.40;;;;;;4973270;28;20407;-50
2022/12/04 03:33:57;;;;;;;14.05;7.75;;;5.70;53.40;;;;;;4986560;28;20431;-46
2022/12/04 03:36:28;;;;;;;17.33;9.07;;;5.70;53.30;;;;;;4993282;28;20058;-42
2022/12/04 03:39:00;;;;;;;13.77;7.72;;;5.80;53.30;;;;;;4992627;28;20054;-51
2022/12/04 03:41:32;;;;;;;14.77;7.97;;;5.80;53.30;;;;;;4989463;28;20502;-45
2022/12/04 03:44:06;;;;;;;13.73;7.85;;;5.70;53.30;;;;;;5002658;28;20062;-45
2022/12/04 03:46:38;;;;;;;14.73;8.00;;;5.70;53.30;;;;;;4990417;28;20087;-46
2022/12/04 03:49:13;;;;;;;13.30;7.78;;;5.70;53.40;;;;;;4989912;28;20053;-45
2022/12/04 03:51:44;;;;;;;13.13;7.53;;;5.70;53.30;;;;;;4987829;28;20054;-46
2022/12/04 03:54:16;;;;;;;13.00;7.97;;;5.70;53.30;;;;;;4984026;28;20509;-45
2022/12/04 03:56:47;;;;;;;15.93;7.55;;;5.70;53.30;;;;;;4983012;28;20050;-45
2022/12/04 03:59:21;;;;;;;13.63;7.45;;;5.70;53.30;;;;;;4998333;28;20061;-44
2022/12/04 04:01:51;;;;;;;15.10;7.70;;;5.70;53.20;;;;;;4997122;28;20531;-47
2022/12/04 04:04:21;;;;;;;11.98;7.68;;;5.70;53.20;;;;;;5000163;28;20072;-44
2022/12/04 04:06:53;;;;;;;13.30;7.50;;;5.70;53.20;;;;;;4991395;28;20057;-46
2022/12/04 04:09:25;;;;;;;13.80;8.02;;;5.70;53.20;;;;;;5000508;28;20057;-46
2022/12/04 04:11:57;;;;;;;12.82;7.32;;;5.70;53.20;;;;;;4985269;28;20417;-49
2022/12/04 04:25:47;;;;;;;11.98;7.55;;;5.70;53.20;;;;;;5011129;28;20068;-46
2022/12/04 04:28:32;;;;;;;13.43;7.60;;;5.70;53.20;;;;;;5003294;28;20417;-42
2022/12/04 04:31:08;;;;;;;14.55;7.95;;;5.70;53.70;;;;;;4999316;28;20053;-50
2022/12/04 04:33:45;;;;;;;15.27;8.65;;;5.70;53.20;;;;;;4997024;28;20391;-46
2022/12/04 04:36:21;;;;;;;12.73;7.03;;;5.60;53.20;;;;;;5003417;28;20065;-43
2022/12/04 04:38:58;;;;;;;14.88;7.95;;;5.60;53.20;;;;;;5002011;28;20050;-43
2022/12/04 04:41:32;;;;;;;15.73;8.20;;;5.60;53.20;;;;;;4999009;28;20062;-47
2022/12/04 04:44:10;;;;;;;13.23;7.75;;;5.60;53.20;;;;;;5004153;28;20061;-48
2022/12/04 04:46:45;;;;;;;14.82;8.15;;;5.60;53.20;;;;;;5002086;28;20064;-41
2022/12/04 04:49:15;;;;;;;15.20;8.48;;;5.60;53.30;;;;;;5003562;28;20516;-43
2022/12/04 04:51:43;;;;;;;15.45;7.97;;;5.60;53.30;;;;;;4997706;28;20050;-48
2022/12/04 04:54:13;;;;;;;16.20;8.65;;;5.60;53.40;;;;;;5001628;28;20053;-42
2022/12/04 04:56:42;;;;;;;13.98;7.75;;;5.50;53.40;;;;;;4996260;28;20060;-44
2022/12/04 04:59:11;;;;;;;14.27;7.65;;;5.50;53.40;;;;;;4999624;28;20073;-48
2022/12/04 05:01:41;;;;;;;12.80;7.57;;;5.50;53.40;;;;;;4996042;28;20053;-46
2022/12/04 05:04:08;;;;;;;14.88;7.90;;;5.50;53.40;;;;;;5002035;28;20046;-43
2022/12/04 05:06:36;;;;;;;14.23;7.95;;;5.50;53.40;;;;;;4997333;28;20129;-45
2022/12/04 05:09:03;;;;;;;16.27;8.95;;;5.50;53.40;;;;;;4996814;28;20053;-44
2022/12/04 05:11:31;;;;;;;15.07;8.25;;;5.50;53.90;;;;;;4998317;28;20061;-42
2022/12/04 05:13:58;;;;;;;16.60;8.48;;;5.50;53.40;;;;;;4999823;28;20054;-47
2022/12/04 05:16:25;;;;;;;14.32;7.80;;;5.50;53.40;;;;;;5009084;28;20058;-46
2022/12/04 05:21:40;;;;;;;34.13;15.02;;;5.50;53.90;;;;;;5004154;28;20060;-47
2022/12/04 05:24:08;;;;;;;70.18;28.58;;;5.50;53.50;;;;;;5001890;28;20060;-44
2022/12/04 05:26:36;;;;;;;27.20;11.98;;;5.40;53.40;;;;;;5001204;28;20046;-48
2022/12/04 05:29:03;;;;;;;17.02;9.35;;;5.40;53.50;;;;;;5004376;28;20060;-45
2022/12/04 05:31:30;;;;;;;15.48;8.27;;;5.50;53.50;;;;;;5001134;28;20053;-42
2022/12/04 05:33:59;;;;;;;17.17;8.73;;;5.50;53.50;;;;;;4998284;28;20118;-48
2022/12/04 05:36:26;;;;;;;14.68;8.40;;;5.50;53.50;;;;;;5003858;28;20417;-46
2022/12/04 05:38:54;;;;;;;15.27;8.88;;;5.40;53.50;;;;;;5003774;28;20049;-45
2022/12/04 05:41:21;;;;;;;17.55;9.27;;;5.40;53.50;;;;;;4998589;28;20057;-49
2022/12/04 05:43:48;;;;;;;18.08;9.50;;;5.50;53.50;;;;;;5002787;28;20053;-48
2022/12/04 05:46:15;;;;;;;20.10;9.27;;;5.50;53.50;;;;;;5003902;28;20064;-50
2022/12/04 05:48:42;;;;;;;17.75;8.57;;;5.40;53.50;;;;;;5003705;28;20076;-44
2022/12/04 05:51:11;;;;;;;17.42;8.93;;;5.40;53.50;;;;;;5008157;28;20050;-48
2022/12/04 05:53:39;;;;;;;18.52;9.68;;;5.40;53.60;;;;;;5003666;28;21315;-43
2022/12/04 05:56:07;;;;;;;18.10;9.88;;;5.40;53.60;;;;;;5000130;28;20049;-44
2022/12/04 05:58:35;;;;;;;19.05;9.40;;;5.40;53.60;;;;;;4995552;28;20061;-46
2022/12/04 06:01:09;;;;;;;39.47;16.73;;;5.40;53.70;;;;;;4996333;28;20053;-44
2022/12/04 06:03:36;;;;;;;25.45;12.90;;;5.40;53.70;;;;;;4997999;28;20058;-49
2022/12/04 06:06:04;;;;;;;19.08;9.90;;;5.40;53.70;;;;;;5001675;28;20062;-46
2022/12/04 06:08:33;;;;;;;18.05;9.80;;;5.40;53.70;;;;;;5001918;28;20066;-47
2022/12/04 06:11:00;;;;;;;18.05;9.40;;;5.40;53.70;;;;;;5000163;28;21228;-47
2022/12/04 06:13:27;;;;;;;17.40;9.38;;;5.40;54.20;;;;;;4999845;28;20061;-49
2022/12/04 06:15:54;;;;;;;19.65;10.20;;;5.40;53.70;;;;;;4995931;28;20101;-45
2022/12/04 06:18:22;;;;;;;20.02;9.38;;;5.40;53.70;;;;;;5002775;28;20061;-47
2022/12/04 06:20:49;;;;;;;19.02;9.77;;;5.40;53.70;;;;;;5001104;28;20061;-43
2022/12/04 06:23:17;;;;;;;16.45;9.32;;;5.40;53.70;;;;;;4998533;28;20061;-44
2022/12/04 06:25:45;;;;;;;19.10;10.02;;;5.40;53.70;;;;;;5003730;28;20053;-42
2022/12/04 06:28:13;;;;;;;19.67;10.27;;;5.40;53.70;;;;;;5003030;28;20049;-47
2022/12/04 06:30:40;;;;;;;17.48;9.57;;;5.40;53.70;;;;;;4998426;28;20058;-46
2022/12/04 06:33:08;;;;;;;31.02;13.82;;;5.40;53.70;;;;;;4998305;28;20052;-48
2022/12/04 06:35:35;;;;;;;34.97;16.08;;;5.40;53.70;;;;;;4999627;28;20422;-44
2022/12/04 06:38:02;;;;;;;25.85;11.82;;;5.40;53.70;;;;;;4999296;28;20382;-43
2022/12/04 06:40:30;;;;;;;20.60;10.93;;;5.40;53.70;;;;;;5000406;28;20060;-41
2022/12/04 06:42:59;;;;;;;19.85;10.82;;;5.40;53.70;;;;;;5003390;28;20061;-44
2022/12/04 06:45:26;;;;;;;21.08;10.77;;;5.40;53.70;;;;;;5003888;28;20058;-45
2022/12/04 06:47:53;;;;;;;19.80;10.20;;;5.40;53.70;;;;;;5007164;28;20417;-48
2022/12/04 06:50:20;;;;;;;20.27;10.43;;;5.40;53.70;;;;;;5000164;28;20780;-43
2022/12/04 06:52:48;;;;;;;20.63;10.43;;;5.40;53.70;;;;;;5001141;28;20083;-46
2022/12/04 06:55:15;;;;;;;20.75;10.57;;;5.40;53.70;;;;;;5012399;28;20069;-45
2022/12/04 06:57:43;;;;;;;20.30;10.73;;;5.40;53.70;;;;;;5000723;28;20053;-49
2022/12/04 07:00:13;;;;;;;18.60;10.73;;;5.40;53.70;;;;;;5001205;28;20068;-46
2022/12/04 07:02:41;;;;;;;21.92;10.65;;;5.40;53.70;;;;;;4998250;28;20054;-47
2022/12/04 07:05:09;;;;;;;20.08;10.45;;;5.40;53.70;;;;;;5002732;28;20058;-44
2022/12/04 07:07:36;;;;;;;21.70;10.70;;;5.40;53.70;;;;;;4996019;28;20058;-45
2022/12/04 07:10:04;;;;;;;18.65;10.38;;;5.40;53.70;;;;;;5001176;28;20065;-47
2022/12/04 07:12:31;;;;;;;20.92;11.73;;;5.40;53.70;;;;;;4998987;28;20453;-46
2022/12/04 07:14:59;;;;;;;21.25;11.13;;;5.40;53.70;;;;;;5003893;28;20433;-49
2022/12/04 07:17:27;;;;;;;18.10;10.95;;;5.40;53.70;;;;;;5005588;28;20509;-47
2022/12/04 07:19:55;;;;;;;19.60;10.88;;;5.40;53.70;;;;;;5002983;28;20058;-47
2022/12/04 07:22:22;;;;;;;20.02;10.55;;;5.40;53.70;;;;;;5001363;28;20619;-46
2022/12/04 07:24:50;;;;;;;20.05;10.50;;;5.40;53.70;;;;;;5003928;28;20367;-44
2022/12/04 07:27:17;;;;;;;20.60;10.88;;;5.40;53.70;;;;;;5004839;28;20490;-48
2022/12/04 07:29:44;;;;;;;21.40;9.95;;;5.40;53.70;;;;;;4998529;28;20064;-47
2022/12/04 07:32:12;;;;;;;18.83;9.82;;;5.40;53.70;;;;;;4997703;28;20061;-48
2022/12/04 07:34:40;;;;;;;20.40;11.43;;;5.40;53.70;;;;;;4998518;28;20058;-46
2022/12/04 07:37:08;;;;;;;19.25;10.57;;;5.40;53.70;;;;;;4996025;28;20056;-48
2022/12/04 07:39:35;;;;;;;19.88;10.18;;;5.40;53.70;;;;;;5002303;28;20068;-46
2022/12/04 07:42:02;;;;;;;20.27;10.25;;;5.40;53.70;;;;;;4997688;28;20072;-44
2022/12/04 07:44:31;;;;;;;17.10;9.27;;;5.40;53.70;;;;;;5005686;28;20390;-46
2022/12/04 07:46:58;;;;;;;15.48;9.32;;;5.40;53.70;;;;;;5005617;28;20049;-46
2022/12/04 07:49:25;;;;;;;20.23;10.80;;;5.40;53.70;;;;;;5007498;28;20054;-48
2022/12/04 07:51:54;;;;;;;18.70;10.02;;;5.40;53.70;;;;;;5000309;28;20077;-47
2022/12/04 07:54:21;;;;;;;21.38;10.68;;;5.40;53.70;;;;;;5001083;28;20383;-44
2022/12/04 07:56:48;;;;;;;19.85;10.07;;;5.40;53.70;;;;;;5003373;28;20053;-42
2022/12/04 07:59:15;;;;;;;17.35;10.23;;;5.40;53.70;;;;;;5002518;28;20054;-46
2022/12/04 08:01:42;;;;;;;18.90;9.98;;;5.40;53.70;;;;;;5005185;28;20501;-48
2022/12/04 08:04:11;;;;;;;19.95;10.85;;;5.40;53.70;;;;;;5005486;28;20061;-46
2022/12/04 08:06:38;;;;;;;17.45;9.88;;;5.40;53.70;;;;;;5005925;28;20417;-45
2022/12/04 08:09:08;;;;;;;19.83;10.40;;;5.40;53.70;;;;;;4999731;28;20493;-48
2022/12/04 08:11:35;;;;;;;66.60;25.88;;;5.40;53.70;;;;;;4999241;28;20065;-44
2022/12/04 08:14:04;;;;;;;29.63;13.68;;;5.40;53.80;;;;;;4996956;28;20326;-44
2022/12/04 08:16:33;;;;;;;21.45;11.18;;;5.40;53.80;;;;;;5006390;28;20058;-45
2022/12/04 08:19:00;;;;;;;21.00;11.25;;;5.40;53.80;;;;;;5005196;28;20399;-44
2022/12/04 08:21:30;;;;;;;18.65;10.32;;;5.40;53.80;;;;;;5001224;28;20054;-45
2022/12/04 08:23:58;;;;;;;17.25;9.98;;;5.40;53.80;;;;;;5000520;28;20054;-47
2022/12/04 08:26:29;;;;;;;19.58;10.32;;;5.40;53.90;;;;;;5002184;28;20049;-48
2022/12/04 08:28:57;;;;;;;18.90;10.30;;;5.40;53.90;;;;;;4997708;28;20061;-47
2022/12/04 08:31:26;;;;;;;18.05;10.07;;;5.40;53.90;;;;;;4997514;28;20050;-46
2022/12/04 08:33:55;;;;;;;16.40;9.20;;;5.40;54.00;;;;;;4999675;28;20429;-46
2022/12/04 08:36:23;;;;;;;19.77;10.43;;;5.40;53.90;;;;;;5000576;28;20058;-46
2022/12/04 08:38:51;;;;;;;20.55;10.23;;;5.40;54.00;;;;;;4995136;28;20053;-43
2022/12/04 08:41:20;;;;;;;18.80;10.07;;;5.40;54.00;;;;;;5000132;28;20050;-48
2022/12/04 08:43:49;;;;;;;15.23;9.10;;;5.40;54.00;;;;;;5005255;28;20073;-45
2022/12/04 08:46:18;;;;;;;17.20;9.20;;;5.40;53.90;;;;;;5004060;28;20410;-44
2022/12/04 08:48:45;;;;;;;18.65;9.52;;;5.40;54.00;;;;;;5000310;28;20057;-47
2022/12/04 08:51:15;;;;;;;16.75;9.13;;;5.40;54.00;;;;;;5001091;28;20565;-46
2022/12/04 08:53:42;;;;;;;22.02;10.70;;;5.40;54.10;;;;;;5001246;28;20058;-43
2022/12/04 08:56:10;;;;;;;17.58;9.75;;;5.40;54.10;;;;;;5002383;28;20058;-44
2022/12/04 08:58:37;;;;;;;18.85;9.95;;;5.40;54.10;;;;;;5001621;28;20061;-44
2022/12/04 09:01:07;;;;;;;23.17;11.00;;;5.40;54.10;;;;;;5000576;28;20050;-49
2022/12/04 09:03:35;;;;;;;19.85;10.10;;;5.40;54.10;;;;;;5002100;28;20501;-47
2022/12/04 09:06:04;;;;;;;19.25;10.02;;;5.40;54.10;;;;;;5008640;28;20049;-47
2022/12/04 09:08:32;;;;;;;19.15;10.23;;;5.50;54.20;;;;;;5015165;28;20061;-46
2022/12/04 09:11:03;;;;;;;17.95;10.18;;;5.50;54.20;;;;;;5000335;28;20064;-48
2022/12/04 09:13:30;;;;;;;18.63;9.45;;;5.50;54.10;;;;;;5002178;28;20050;-44
2022/12/04 09:15:58;;;;;;;17.20;9.68;;;5.50;54.10;;;;;;4996987;28;20061;-48
2022/12/04 09:18:26;;;;;;;16.35;9.40;;;5.50;54.20;;;;;;4998398;28;20058;-51
2022/12/04 09:20:57;;;;;;;16.92;9.23;;;5.50;54.20;;;;;;5005434;28;20062;-43
2022/12/04 09:23:25;;;;;;;14.90;8.25;;;5.50;54.20;;;;;;5002355;28;20064;-45
2022/12/04 09:25:52;;;;;;;18.05;9.65;;;5.50;54.20;;;;;;5005151;28;20056;-44
2022/12/04 09:28:20;;;;;;;20.10;10.30;;;5.50;54.30;;;;;;5002276;28;20065;-44
2022/12/04 09:30:56;;;;;;;21.23;10.90;;;5.50;54.30;;;;;;5000443;28;20509;-43
2022/12/04 09:33:24;;;;;;;17.30;9.75;;;5.50;54.30;;;;;;5003997;28;20057;-42
2022/12/04 09:35:52;;;;;;;15.73;9.48;;;5.50;54.30;;;;;;5003899;28;20057;-43
2022/12/04 09:38:20;;;;;;;17.30;9.35;;;5.50;54.30;;;;;;5001554;28;20054;-46
2022/12/04 09:40:54;;;;;;;17.10;9.68;;;5.50;54.30;;;;;;5005694;28;20081;-48
2022/12/04 09:43:30;;;;;;;16.80;9.57;;;5.60;54.40;;;;;;5004580;28;20049;-47
2022/12/04 09:46:02;;;;;;;17.38;10.32;;;5.60;54.40;;;;;;5003576;28;20061;-45
2022/12/04 09:48:34;;;;;;;18.38;10.00;;;5.60;54.40;;;;;;4998938;28;20062;-47
2022/12/04 09:51:05;;;;;;;18.77;10.27;;;5.60;54.40;;;;;;5002337;28;20061;-46
2022/12/04 09:53:42;;;;;;;19.95;10.48;;;5.60;54.40;;;;;;5002188;28;20053;-45
2022/12/04 09:56:13;;;;;;;19.95;10.65;;;5.70;54.50;;;;;;5003775;28;20057;-48
2022/12/04 09:58:46;;;;;;;18.00;10.25;;;5.70;54.50;;;;;;5006040;28;20050;-47
2022/12/04 10:01:21;;;;;;;20.42;11.32;;;5.70;54.40;;;;;;5001060;28;20061;-49
2022/12/04 10:03:49;;;;;;;20.40;10.10;;;5.70;54.50;;;;;;5001920;28;20057;-43
2022/12/04 10:06:22;;;;;;;17.52;9.45;;;5.70;54.40;;;;;;5003865;28;20060;-43
2022/12/04 10:08:53;;;;;;;20.83;11.30;;;5.70;54.90;;;;;;4996562;28;20057;-46
2022/12/04 10:11:27;;;;;;;24.65;11.23;;;5.70;54.40;;;;;;5007881;28;20065;-46
2022/12/04 10:14:13;;;;;;;22.05;10.10;;;5.80;54.50;;;;;;4991430;28;20049;-45
2022/12/04 10:16:55;;;;;;;17.60;10.13;;;5.80;54.40;;;;;;5000712;28;20057;-43
2022/12/04 10:19:33;;;;;;;21.02;10.57;;;5.80;54.40;;;;;;5009266;28;20046;-44
2022/12/04 10:22:12;;;;;;;20.33;9.90;;;5.80;54.50;;;;;;4999769;28;20053;-48
2022/12/04 10:24:45;;;;;;;20.63;10.02;;;5.80;54.50;;;;;;5002204;28;20057;-47
2022/12/04 10:27:23;;;;;;;20.48;10.52;;;5.80;54.60;;;;;;5003195;28;20057;-44
2022/12/04 10:29:54;;;;;;;18.02;9.35;;;5.80;54.50;;;;;;5003100;28;20060;-48
2022/12/04 10:32:25;;;;;;;17.48;10.32;;;5.80;54.50;;;;;;4993034;28;20054;-49
2022/12/04 10:34:56;;;;;;;19.70;9.70;;;5.80;54.50;;;;;;5004791;28;20046;-55
2022/12/04 10:37:25;;;;;;;18.60;9.65;;;5.80;54.50;;;;;;5004065;28;20062;-46
2022/12/04 10:39:58;;;;;;;19.00;10.07;;;5.80;54.50;;;;;;5002478;28;20413;-47
2022/12/04 10:42:31;;;;;;;17.90;9.50;;;5.90;54.60;;;;;;4999668;28;20405;-48
2022/12/04 10:44:58;;;;;;;24.73;10.80;;;5.90;54.60;;;;;;5009016;28;20425;-46
2022/12/04 10:47:26;;;;;;;21.38;9.98;;;5.90;54.60;;;;;;4996966;28;20054;-55
2022/12/04 10:49:59;;;;;;;19.95;9.55;;;5.90;54.60;;;;;;5003477;28;20054;-55
2022/12/04 10:52:28;;;;;;;20.20;9.13;;;5.90;54.50;;;;;;4993228;28;20067;-55
2022/12/04 10:54:58;;;;;;;16.40;8.38;;;5.90;54.50;;;;;;4987822;28;20108;-55
2022/12/04 10:57:36;;;;;;;20.25;10.10;;;5.90;54.60;;;;;;4990270;28;20064;-48
2022/12/04 11:00:22;;;;;;;20.42;10.20;;;5.90;54.60;;;;;;4993211;28;20952;-53
2022/12/04 11:02:50;;;;;;;20.42;10.98;;;5.90;54.60;;;;;;4992185;28;20420;-52
2022/12/04 11:05:26;;;;;;;21.95;11.05;;;5.90;54.60;;;;;;5000482;28;20070;-56
2022/12/04 11:07:57;;;;;;;22.50;11.43;;;5.90;54.60;;;;;;4987500;28;20061;-55
2022/12/04 11:10:31;;;;;;;19.67;10.45;;;6.00;54.60;;;;;;4990942;28;20061;-56
2022/12/04 11:13:00;;;;;;;22.15;11.65;;;6.00;54.60;;;;;;4995937;28;20061;-55
2022/12/04 11:15:29;;;;;;;68.65;26.23;;;6.00;54.70;;;;;;4995063;28;20042;-53
2022/12/04 11:18:07;;;;;;;31.90;14.77;;;6.00;54.70;;;;;;4998467;28;20060;-51
2022/12/04 11:20:35;;;;;;;24.83;11.70;;;6.00;54.70;;;;;;4999900;28;21449;-56
2022/12/04 11:23:05;;;;;;;20.08;10.65;;;6.00;54.70;;;;;;4997616;28;20398;-53
2022/12/04 11:25:38;;;;;;;23.95;11.20;;;6.00;54.70;;;;;;4995481;28;20062;-56
2022/12/04 11:28:05;;;;;;;24.63;11.63;;;6.00;54.60;;;;;;5003122;28;21916;-56
2022/12/04 11:30:35;;;;;;;22.58;10.02;;;6.00;54.60;;;;;;5004049;28;20054;-56
2022/12/04 11:33:04;;;;;;;23.40;11.15;;;6.00;54.70;;;;;;5004697;28;20126;-56
2022/12/04 11:35:32;;;;;;;21.98;10.23;;;6.00;54.70;;;;;;5002243;28;20054;-55
2022/12/04 11:38:08;;;;;;;20.05;10.45;;;6.10;54.70;;;;;;5004413;28;20068;-56
2022/12/04 11:40:36;;;;;;;21.60;10.18;;;6.00;54.70;;;;;;5004073;28;20505;-53
2022/12/04 11:43:06;;;;;;;18.38;9.60;;;6.10;54.80;;;;;;5002657;28;20057;-45
2022/12/04 11:45:33;;;;;;;20.30;10.68;;;6.00;54.80;;;;;;5002952;28;20065;-44
2022/12/04 11:48:02;;;;;;;19.92;10.50;;;6.10;54.80;;;;;;5005077;28;20053;-47
2022/12/04 11:50:49;;;;;;;22.80;10.35;;;6.10;54.80;;;;;;4999072;28;20528;-47
2022/12/04 11:53:24;;;;;;;21.95;10.88;;;6.10;54.80;;;;;;5002878;28;20081;-45
2022/12/04 11:56:13;;;;;;;17.88;9.25;;;6.10;54.90;;;;;;4998978;28;20054;-47
2022/12/04 11:58:52;;;;;;;19.38;9.88;;;6.10;54.90;;;;;;5003949;28;20057;-43
2022/12/04 12:01:28;;;;;;;17.40;9.57;;;6.10;54.90;;;;;;4998902;28;20061;-48
2022/12/04 12:04:28;;;;;;;20.27;10.75;;;6.20;54.90;;;;;;5005767;28;20417;-46
2022/12/04 12:07:03;;;;;;;18.83;9.65;;;6.20;54.90;;;;;;5000561;28;20050;-47
2022/12/04 12:09:42;;;;;;;18.73;9.95;;;6.20;54.90;;;;;;4995965;28;20066;-47
2022/12/04 12:12:14;;;;;;;21.80;10.25;;;6.20;54.80;;;;;;4995965;28;20489;-47
2022/12/04 12:14:52;;;;;;;19.55;10.18;;;6.20;55.00;;;;;;4999831;28;20065;-54
2022/12/04 12:17:28;;;;;;;20.95;10.20;;;6.20;54.90;;;;;;4999727;28;20057;-56
2022/12/04 12:20:05;;;;;;;22.80;10.88;;;6.20;55.00;;;;;;5002104;28;20068;-56
2022/12/04 12:22:52;;;;;;;19.00;9.65;;;6.20;55.00;;;;;;5011915;28;20053;-56
2022/12/04 12:25:26;;;;;;;18.58;9.80;;;6.20;54.90;;;;;;4984494;28;20046;-56
2022/12/04 12:28:09;;;;;;;23.23;10.45;;;6.20;54.90;;;;;;4992050;28;20054;-56
2022/12/04 12:30:53;;;;;;;21.98;10.27;;;6.30;55.00;;;;;;4979373;28;20073;-50
2022/12/04 12:33:24;;;;;;;20.40;10.10;;;6.30;55.00;;;;;;4984231;28;20062;-43
2022/12/04 12:35:58;;;;;;;19.92;10.45;;;6.30;55.00;;;;;;4984489;28;20061;-44
2022/12/04 12:38:29;;;;;;;24.60;11.63;;;6.30;54.90;;;;;;4983730;28;20065;-50
2022/12/04 12:41:04;;;;;;;21.02;10.68;;;6.30;54.90;;;;;;4983210;28;20054;-48
2022/12/04 12:43:33;;;;;;;22.65;11.48;;;6.30;54.80;;;;;;4984263;28;20050;-46
2022/12/04 12:46:06;;;;;;;24.45;12.10;;;6.30;54.80;;;;;;4985919;28;20058;-45
2022/12/04 12:48:38;;;;;;;19.50;10.57;;;6.30;54.80;;;;;;4984122;28;20058;-46
2022/12/04 12:51:16;;;;;;;21.98;11.30;;;6.30;54.80;;;;;;4978789;28;20054;-48
2022/12/04 12:53:50;;;;;;;21.02;10.88;;;6.30;54.80;;;;;;4982561;28;20054;-43
2022/12/04 12:56:21;;;;;;;21.80;11.88;;;6.30;54.80;;;;;;4983396;28;20046;-47
2022/12/04 12:58:53;;;;;;;25.55;12.07;;;6.40;54.80;;;;;;4981605;28;20057;-44
2022/12/04 13:01:24;;;;;;;22.52;11.40;;;6.40;54.80;;;;;;4981973;28;20065;-46
2022/12/04 13:03:58;;;;;;;23.17;11.80;;;6.40;54.90;;;;;;4976447;28;20149;-47
2022/12/04 13:06:31;;;;;;;26.10;12.18;;;6.40;54.90;;;;;;4984513;28;20407;-45
2022/12/04 13:09:06;;;;;;;22.25;11.35;;;6.40;54.90;;;;;;4983437;28;20054;-45
2022/12/04 13:11:36;;;;;;;24.27;11.98;;;6.40;54.80;;;;;;4981580;28;20475;-45